createdAt,value
2023-01-26T00:02:34.222Z,102281.44
2023-01-26T00:07:37.879Z,102280.06
2023-01-26T00:12:41.530Z,102280.38
2023-01-26T00:17:48.092Z,102276.00
2023-01-26T00:22:51.765Z,102279.09
2023-01-26T00:27:55.423Z,102273.22
2023-01-26T00:33:00.741Z,102266.97
2023-01-26T00:38:05.033Z,102265.84
2023-01-26T00:43:08.806Z,102269.28
2023-01-26T00:48:14.115Z,102277.44
2023-01-26T00:53:17.784Z,102262.81
2023-01-26T00:58:21.444Z,102279.69
2023-01-26T01:03:26.792Z,102286.06
2023-01-26T01:08:30.510Z,102293.38
2023-01-26T01:13:34.218Z,102293.91
2023-01-26T01:18:39.978Z,102298.53
2023-01-26T01:23:44.438Z,102299.44
2023-01-26T01:28:48.132Z,102296.13
2023-01-26T01:33:53.748Z,102295.41
2023-01-26T01:38:57.543Z,102285.75
2023-01-26T01:44:19.497Z,102279.69
2023-01-26T01:49:28.755Z,102282.28
2023-01-26T01:54:36.230Z,102286.59
2023-01-26T01:59:40.008Z,102298.03
2023-01-26T02:04:45.602Z,102296.47
2023-01-26T02:09:49.895Z,102294.72
2023-01-26T02:14:56.044Z,102298.25
2023-01-26T02:20:05.897Z,102295.75
2023-01-26T02:25:23.395Z,102298.09
2023-01-26T02:30:30.058Z,102303.44
2023-01-26T02:35:33.727Z,102313.22
2023-01-26T02:40:43.826Z,102302.81
2023-01-26T02:45:49.782Z,102312.47
2023-01-26T02:50:53.433Z,102317.69
2023-01-26T02:55:57.096Z,102321.22
2023-01-26T03:01:03.448Z,102317.75
2023-01-26T03:06:07.345Z,102317.78
2023-01-26T03:11:11.070Z,102328.31
2023-01-26T03:16:16.431Z,102337.03
2023-01-26T03:21:20.417Z,102337.88
2023-01-26T03:26:24.121Z,102337.03
2023-01-26T03:31:29.540Z,102335.31
2023-01-26T03:36:33.291Z,102337.97
2023-01-26T03:41:36.962Z,102331.88
2023-01-26T03:46:42.409Z,102351.91
2023-01-26T03:51:46.861Z,102343.13
2023-01-26T03:56:50.557Z,102350.69
2023-01-26T04:01:55.892Z,102356.00
2023-01-26T04:06:59.624Z,102356.72
2023-01-26T04:12:04.362Z,102356.66
2023-01-26T04:17:09.760Z,102362.78
2023-01-26T04:22:13.799Z,102356.53
2023-01-26T04:27:17.465Z,102356.50
2023-01-26T04:32:23.025Z,102353.16
2023-01-26T04:37:27.441Z,102355.00
2023-01-26T04:42:31.292Z,102362.00
2023-01-26T04:47:37.589Z,102362.00
2023-01-26T04:52:41.248Z,102369.03
2023-01-26T04:57:44.933Z,102365.69
2023-01-26T05:02:50.259Z,102361.44
2023-01-26T05:07:53.937Z,102365.81
2023-01-26T05:12:57.653Z,102365.84
2023-01-26T05:18:03.358Z,102364.97
2023-01-26T05:23:07.064Z,102372.81
2023-01-26T05:28:10.736Z,102378.94
2023-01-26T05:33:16.050Z,102379.78
2023-01-26T05:38:20.316Z,102383.22
2023-01-26T05:43:24.001Z,102385.88
2023-01-26T05:48:29.358Z,102387.63
2023-01-26T05:53:33.038Z,102385.00
2023-01-26T05:58:36.681Z,102389.34
2023-01-26T06:03:42.007Z,102392.03
2023-01-26T06:08:45.664Z,102398.03
2023-01-26T06:13:49.365Z,102391.91
2023-01-26T06:18:54.720Z,102404.09
2023-01-26T06:23:58.441Z,102413.59
2023-01-26T06:29:02.147Z,102405.81
2023-01-26T06:34:07.553Z,102414.63
2023-01-26T06:39:13.513Z,102407.69
2023-01-26T06:44:17.228Z,102410.31
2023-01-26T06:49:22.579Z,102412.06
2023-01-26T06:54:26.268Z,102414.66
2023-01-26T06:59:29.928Z,102419.91
2023-01-26T07:04:35.254Z,102415.56
2023-01-26T07:09:39.385Z,102427.75
2023-01-26T07:14:43.093Z,102426.84
2023-01-26T07:19:48.904Z,102434.72
2023-01-26T07:24:53.200Z,102422.50
2023-01-26T07:29:56.919Z,102433.84
2023-01-26T07:35:02.277Z,102445.16
2023-01-26T07:40:06.880Z,102442.59
2023-01-26T07:45:11.143Z,102446.06
2023-01-26T07:50:16.841Z,102437.34
2023-01-26T07:55:20.995Z,102438.22
2023-01-26T08:00:24.834Z,102446.91
2023-01-26T08:05:30.180Z,102461.72
2023-01-26T08:10:34.181Z,102458.22
2023-01-26T08:15:37.924Z,102459.94
2023-01-26T08:20:49.754Z,102464.25
2023-01-26T08:25:53.477Z,102455.53
2023-01-26T08:30:58.069Z,102451.13
2023-01-26T08:36:09.225Z,102460.63
2023-01-26T08:41:14.261Z,102443.16
2023-01-26T08:46:18.381Z,102442.31
2023-01-26T08:51:23.722Z,102432.72
2023-01-26T08:56:27.458Z,102434.47
2023-01-26T09:01:31.205Z,102433.63
2023-01-26T09:06:36.564Z,102427.44
2023-01-26T09:11:40.259Z,102432.63
2023-01-26T09:16:44.049Z,102429.16
2023-01-26T09:21:53.987Z,102429.09
2023-01-26T09:26:57.644Z,102425.63
2023-01-26T09:32:01.333Z,102435.22
2023-01-26T09:37:07.899Z,102428.25
2023-01-26T09:42:33.535Z,102427.38
2023-01-26T09:47:52.224Z,102430.03
2023-01-26T09:53:02.801Z,102431.88
2023-01-26T09:58:08.616Z,102424.81
2023-01-26T10:03:19.522Z,102433.53
2023-01-26T10:08:24.913Z,102435.19
2023-01-26T10:13:30.158Z,102439.59
2023-01-26T10:18:37.884Z,102455.19
2023-01-26T10:23:48.933Z,102469.03
2023-01-26T10:28:53.721Z,102471.63
2023-01-26T10:33:59.477Z,102464.59
2023-01-26T10:39:08.851Z,102469.00
2023-01-26T10:44:26.102Z,102465.47
2023-01-26T10:49:29.805Z,102460.34
2023-01-26T10:54:35.280Z,102463.00
2023-01-26T10:59:42.892Z,102464.81
2023-01-26T11:05:04.026Z,102458.84
2023-01-26T11:10:25.418Z,102448.31
2023-01-26T11:15:37.091Z,102452.59
2023-01-26T11:20:50.305Z,102443.88
2023-01-26T11:26:14.514Z,102457.75
2023-01-26T11:31:29.120Z,102470.09
2023-01-26T11:36:41.044Z,102470.16
2023-01-26T11:41:57.418Z,102469.28
2023-01-26T11:47:15.665Z,102462.47
2023-01-26T11:52:27.304Z,102470.38
2023-01-26T11:57:39.730Z,102475.66
2023-01-26T12:02:46.118Z,102473.03
2023-01-26T12:07:55.861Z,102470.41
2023-01-26T12:13:08.884Z,102479.09
2023-01-26T12:18:18.134Z,102478.19
2023-01-26T12:23:30.588Z,102480.75
2023-01-26T12:28:40.862Z,102491.19
2023-01-26T12:33:44.779Z,102492.00
2023-01-26T12:39:05.176Z,102504.09
2023-01-26T12:44:21.906Z,102498.72
2023-01-26T12:49:31.631Z,102515.06
2023-01-26T12:54:41.425Z,102513.97
2023-01-26T12:59:49.109Z,102527.06
2023-01-26T13:04:53.573Z,102531.94
2023-01-26T13:10:21.657Z,102523.19
2023-01-26T13:15:28.457Z,102527.69
2023-01-26T13:20:52.715Z,102530.13
2023-01-26T13:26:18.225Z,102528.09
2023-01-26T13:31:35.724Z,102539.38
2023-01-26T13:36:44.286Z,102549.47
2023-01-26T13:41:48.802Z,102556.19
2023-01-26T13:47:00.060Z,102572.56
2023-01-26T13:52:03.996Z,102575.75
2023-01-26T13:57:08.486Z,102582.38
2023-01-26T14:02:23.532Z,102600.03
2023-01-26T14:07:31.462Z,102607.81
2023-01-26T14:12:37.038Z,102623.94
2023-01-26T14:17:52.041Z,102611.66
2023-01-26T14:23:14.243Z,102619.34
2023-01-26T14:28:27.991Z,102626.16
2023-01-26T14:33:33.943Z,102634.88
2023-01-26T14:38:45.064Z,102642.47
2023-01-26T14:43:50.130Z,102645.97
2023-01-26T14:49:00.298Z,102645.31
2023-01-26T14:54:08.307Z,102648.81
2023-01-26T14:59:22.394Z,102653.84
2023-01-26T15:04:39.234Z,102655.56
2023-01-26T15:09:42.903Z,102651.97
2023-01-26T15:14:51.821Z,102654.72
2023-01-26T15:19:57.231Z,102657.81
2023-01-26T15:25:03.397Z,102664.06
2023-01-26T15:30:08.486Z,102658.09
2023-01-26T15:35:26.012Z,102666.28
2023-01-26T15:40:30.148Z,102676.34
2023-01-26T15:45:34.263Z,102691.41
2023-01-26T15:50:39.733Z,102701.38
2023-01-26T15:55:43.803Z,102707.81
2023-01-26T16:00:47.686Z,102724.69
2023-01-26T16:05:53.148Z,102711.91
2023-01-26T16:10:56.969Z,102726.03
2023-01-26T16:16:00.645Z,102730.16
2023-01-26T16:21:16.095Z,102729.34
2023-01-26T16:26:21.294Z,102737.38
2023-01-26T16:31:26.731Z,102746.28
2023-01-26T16:36:32.191Z,102754.41
2023-01-26T16:41:36.053Z,102766.78
2023-01-26T16:46:39.740Z,102763.53
2023-01-26T16:51:45.392Z,102761.88
2023-01-26T16:56:49.047Z,102763.72
2023-01-26T17:01:52.977Z,102770.75
2023-01-26T17:06:58.382Z,102766.38
2023-01-26T17:12:02.065Z,102770.72
2023-01-26T17:17:05.833Z,102778.59
2023-01-26T17:22:11.143Z,102796.00
2023-01-26T17:27:14.905Z,102807.28
2023-01-26T17:32:18.763Z,102808.97
2023-01-26T17:37:26.835Z,102807.91
2023-01-26T17:42:30.498Z,102812.97
2023-01-26T17:47:34.664Z,102818.84
2023-01-26T17:52:39.989Z,102826.59
2023-01-26T17:57:43.665Z,102823.72
2023-01-26T18:02:47.381Z,102826.16
2023-01-26T18:07:52.703Z,102819.88
2023-01-26T18:12:56.389Z,102823.47
2023-01-26T18:18:00.035Z,102810.84
2023-01-26T18:23:05.413Z,102807.00
2023-01-26T18:28:09.105Z,102810.28
2023-01-26T18:33:12.799Z,102798.53
2023-01-26T18:38:18.114Z,102788.75
2023-01-26T18:43:21.778Z,102790.38
2023-01-26T18:48:25.547Z,102787.63
2023-01-26T18:53:31.269Z,102783.31
2023-01-26T18:58:35.628Z,102781.34
2023-01-26T19:03:40.026Z,102771.56
2023-01-26T19:08:46.036Z,102764.56
2023-01-26T19:13:49.727Z,102757.66
2023-01-26T19:18:53.894Z,102756.84
2023-01-26T19:23:59.846Z,102747.00
2023-01-26T19:29:03.573Z,102741.50
2023-01-26T19:34:08.755Z,102740.38
2023-01-26T19:39:14.115Z,102727.78
2023-01-26T19:44:17.812Z,102718.78
2023-01-26T19:49:21.548Z,102721.69
2023-01-26T19:54:26.898Z,102713.75
2023-01-26T19:59:30.542Z,102695.91
2023-01-26T20:04:34.255Z,102700.91
2023-01-26T20:09:39.570Z,102691.03
2023-01-26T20:14:43.271Z,102687.59
2023-01-26T20:19:46.968Z,102675.84
2023-01-26T20:24:53.248Z,102675.00
2023-01-26T20:29:57.083Z,102657.13
2023-01-26T20:35:00.782Z,102652.53
2023-01-26T20:40:07.847Z,102648.41
2023-01-26T20:45:11.856Z,102653.41
2023-01-26T20:50:17.209Z,102640.03
2023-01-26T20:55:23.528Z,102626.88
2023-01-26T21:00:27.359Z,102615.28
2023-01-26T21:05:31.058Z,102603.63
2023-01-26T21:10:37.463Z,102600.84
2023-01-26T21:15:41.947Z,102603.25
2023-01-26T21:20:45.644Z,102599.34
2023-01-26T21:25:51.077Z,102606.56
2023-01-26T21:31:01.285Z,102600.59
2023-01-26T21:36:06.715Z,102586.25
2023-01-26T21:41:13.973Z,102573.28
2023-01-26T21:46:17.662Z,102564.44
2023-01-26T21:51:22.440Z,102572.13
2023-01-26T21:56:27.774Z,102564.66
2023-01-26T22:01:33.402Z,102565.03
2023-01-26T22:06:36.767Z,102574.19
2023-01-26T22:11:43.330Z,102557.13
2023-01-26T22:16:47.078Z,102553.41
2023-01-26T22:21:50.775Z,102557.03
2023-01-26T22:26:56.104Z,102546.66
2023-01-26T22:31:59.849Z,102553.38
2023-01-26T22:37:03.548Z,102538.72
2023-01-26T22:42:09.091Z,102536.06
2023-01-26T22:47:12.756Z,102539.88
2023-01-26T22:52:16.408Z,102536.84
2023-01-26T22:57:21.735Z,102534.81
2023-01-26T23:02:25.476Z,102548.44
2023-01-26T23:07:29.693Z,102545.53
2023-01-26T23:12:35.022Z,102540.34
2023-01-26T23:17:38.702Z,102531.22
2023-01-26T23:22:42.365Z,102531.25
2023-01-26T23:27:47.773Z,102533.34
2023-01-26T23:32:51.484Z,102532.22
2023-01-26T23:37:55.341Z,102530.88
2023-01-26T23:43:15.421Z,102528.78
2023-01-26T23:48:20.654Z,102538.22
2023-01-26T23:53:24.393Z,102535.00
2023-01-26T23:58:29.754Z,102531.41
